sensor_id;sensor_type;location;lat;lon;timestamp;pressure;altitude;pressure_sealevel;temperature;humidity
82474;BME280;72350;53.232;6.556;2023-08-20T00:00:22;101915.84;;;21.16;70.26
82474;BME280;72350;53.232;6.556;2023-08-20T00:02:54;101917.31;;;21.19;70.53
82474;BME280;72350;53.232;6.556;2023-08-20T00:05:26;101905.94;;;21.13;70.58
82474;BME280;72350;53.232;6.556;2023-08-20T00:07:55;101924.06;;;21.11;70.87
82474;BME280;72350;53.232;6.556;2023-08-20T00:10:23;101917.81;;;21.09;71.07
82474;BME280;72350;53.232;6.556;2023-08-20T00:12:51;101919.75;;;21.08;70.14
82474;BME280;72350;53.232;6.556;2023-08-20T00:15:19;101915.47;;;21.06;70.29
82474;BME280;72350;53.232;6.556;2023-08-20T00:17:49;101924.09;;;21.04;70.62
82474;BME280;72350;53.232;6.556;2023-08-20T00:20:17;101926.47;;;21.07;70.17
82474;BME280;72350;53.232;6.556;2023-08-20T00:22:46;101935.94;;;21.06;70.50
82474;BME280;72350;53.232;6.556;2023-08-20T00:25:17;101939.41;;;21.02;70.13
82474;BME280;72350;53.232;6.556;2023-08-20T00:27:45;101937.28;;;20.97;70.71
82474;BME280;72350;53.232;6.556;2023-08-20T00:30:13;101938.13;;;20.98;70.26
82474;BME280;72350;53.232;6.556;2023-08-20T00:32:42;101941.19;;;20.96;70.11
82474;BME280;72350;53.232;6.556;2023-08-20T00:35:10;101937.50;;;20.95;70.61
82474;BME280;72350;53.232;6.556;2023-08-20T00:37:38;101931.91;;;20.95;70.22
82474;BME280;72350;53.232;6.556;2023-08-20T00:40:07;101924.19;;;20.91;70.37
82474;BME280;72350;53.232;6.556;2023-08-20T00:42:37;101933.91;;;20.88;70.50
82474;BME280;72350;53.232;6.556;2023-08-20T00:45:07;101942.50;;;20.87;70.67
82474;BME280;72350;53.232;6.556;2023-08-20T00:47:37;101942.72;;;20.85;70.33
82474;BME280;72350;53.232;6.556;2023-08-20T00:50:06;101940.81;;;20.86;70.71
82474;BME280;72350;53.232;6.556;2023-08-20T00:52:35;101933.47;;;20.85;70.57
82474;BME280;72350;53.232;6.556;2023-08-20T00:55:07;101945.97;;;20.82;70.62
82474;BME280;72350;53.232;6.556;2023-08-20T00:57:37;101953.06;;;20.85;70.84
82474;BME280;72350;53.232;6.556;2023-08-20T01:00:08;101948.78;;;20.82;70.83
82474;BME280;72350;53.232;6.556;2023-08-20T01:02:38;101950.94;;;20.80;70.78
82474;BME280;72350;53.232;6.556;2023-08-20T01:05:09;101953.31;;;20.83;70.69
82474;BME280;72350;53.232;6.556;2023-08-20T01:07:47;101946.81;;;20.83;70.62
82474;BME280;72350;53.232;6.556;2023-08-20T01:10:19;101945.13;;;20.82;70.47
82474;BME280;72350;53.232;6.556;2023-08-20T01:12:50;101940.84;;;20.72;70.37
82474;BME280;72350;53.232;6.556;2023-08-20T01:15:19;101942.13;;;20.77;70.79
82474;BME280;72350;53.232;6.556;2023-08-20T01:17:48;101938.69;;;20.75;71.09
82474;BME280;72350;53.232;6.556;2023-08-20T01:20:16;101951.38;;;20.77;70.76
82474;BME280;72350;53.232;6.556;2023-08-20T01:23:08;101949.66;;;20.76;70.59
82474;BME280;72350;53.232;6.556;2023-08-20T01:25:53;101951.81;;;20.81;70.30
82474;BME280;72350;53.232;6.556;2023-08-20T01:28:28;101954.41;;;20.76;70.63
82474;BME280;72350;53.232;6.556;2023-08-20T01:30:57;101963.22;;;20.72;70.74
82474;BME280;72350;53.232;6.556;2023-08-20T01:33:26;101960.88;;;20.69;70.11
82474;BME280;72350;53.232;6.556;2023-08-20T01:35:55;101959.81;;;20.70;70.32
82474;BME280;72350;53.232;6.556;2023-08-20T01:38:22;101961.34;;;20.66;70.42
82474;BME280;72350;53.232;6.556;2023-08-20T01:40:50;101974.69;;;20.64;70.94
82474;BME280;72350;53.232;6.556;2023-08-20T01:43:18;101984.81;;;20.65;70.75
82474;BME280;72350;53.232;6.556;2023-08-20T01:45:47;101978.56;;;20.63;70.39
82474;BME280;72350;53.232;6.556;2023-08-20T01:48:15;101989.13;;;20.61;70.18
82474;BME280;72350;53.232;6.556;2023-08-20T01:50:43;101990.44;;;20.52;70.51
82474;BME280;72350;53.232;6.556;2023-08-20T01:53:12;101996.69;;;20.54;70.26
82474;BME280;72350;53.232;6.556;2023-08-20T01:55:41;101996.03;;;20.59;70.96
82474;BME280;72350;53.232;6.556;2023-08-20T01:58:09;102002.72;;;20.58;70.70
82474;BME280;72350;53.232;6.556;2023-08-20T02:00:37;102002.91;;;20.56;70.51
82474;BME280;72350;53.232;6.556;2023-08-20T02:03:07;102009.38;;;20.57;70.62
82474;BME280;72350;53.232;6.556;2023-08-20T02:05:35;101997.31;;;20.56;70.59
82474;BME280;72350;53.232;6.556;2023-08-20T02:08:08;101996.88;;;20.52;70.50
82474;BME280;72350;53.232;6.556;2023-08-20T02:10:36;102005.28;;;20.52;70.28
82474;BME280;72350;53.232;6.556;2023-08-20T02:13:04;102005.50;;;20.51;70.46
82474;BME280;72350;53.232;6.556;2023-08-20T02:15:34;102007.44;;;20.50;70.77
82474;BME280;72350;53.232;6.556;2023-08-20T02:18:02;102013.47;;;20.47;70.98
82474;BME280;72350;53.232;6.556;2023-08-20T02:20:32;102013.03;;;20.50;70.15
82474;BME280;72350;53.232;6.556;2023-08-20T02:23:00;102014.13;;;20.49;70.31
82474;BME280;72350;53.232;6.556;2023-08-20T02:25:28;102003.13;;;20.48;70.26
82474;BME280;72350;53.232;6.556;2023-08-20T02:27:56;101999.25;;;20.49;70.41
82474;BME280;72350;53.232;6.556;2023-08-20T02:30:23;101990.22;;;20.47;70.22
82474;BME280;72350;53.232;6.556;2023-08-20T02:32:51;101981.16;;;20.51;70.01
82474;BME280;72350;53.232;6.556;2023-08-20T02:35:19;101994.53;;;20.49;70.24
82474;BME280;72350;53.232;6.556;2023-08-20T02:37:51;101994.53;;;20.43;70.26
82474;BME280;72350;53.232;6.556;2023-08-20T02:40:19;101976.88;;;20.36;70.70
82474;BME280;72350;53.232;6.556;2023-08-20T02:42:47;101970.22;;;20.30;70.39
82474;BME280;72350;53.232;6.556;2023-08-20T02:45:15;101972.38;;;20.28;70.74
82474;BME280;72350;53.232;6.556;2023-08-20T02:47:43;101969.81;;;20.26;70.89
82474;BME280;72350;53.232;6.556;2023-08-20T02:50:11;101967.25;;;20.18;71.07
82474;BME280;72350;53.232;6.556;2023-08-20T02:52:38;101958.41;;;20.21;71.25
82474;BME280;72350;53.232;6.556;2023-08-20T02:55:08;101960.56;;;20.19;71.65
82474;BME280;72350;53.232;6.556;2023-08-20T02:57:36;101955.38;;;20.23;70.82
82474;BME280;72350;53.232;6.556;2023-08-20T03:00:05;101962.47;;;20.25;71.62
82474;BME280;72350;53.232;6.556;2023-08-20T03:02:37;101963.13;;;20.34;71.21
82474;BME280;72350;53.232;6.556;2023-08-20T03:05:07;101972.59;;;20.33;71.35
82474;BME280;72350;53.232;6.556;2023-08-20T03:07:36;101973.44;;;20.34;71.78
82474;BME280;72350;53.232;6.556;2023-08-20T03:10:05;101963.97;;;20.28;71.45
82474;BME280;72350;53.232;6.556;2023-08-20T03:12:34;101956.22;;;20.23;71.87
82474;BME280;72350;53.232;6.556;2023-08-20T03:15:02;101962.91;;;20.22;71.88
82474;BME280;72350;53.232;6.556;2023-08-20T03:17:30;101961.41;;;20.26;71.62
82474;BME280;72350;53.232;6.556;2023-08-20T03:20:00;101956.03;;;20.25;71.80
82474;BME280;72350;53.232;6.556;2023-08-20T03:22:28;101943.13;;;20.24;72.14
82474;BME280;72350;53.232;6.556;2023-08-20T03:24:56;101937.75;;;20.22;72.02
82474;BME280;72350;53.232;6.556;2023-08-20T03:27:24;101933.44;;;20.26;71.77
82474;BME280;72350;53.232;6.556;2023-08-20T03:29:53;101951.53;;;20.24;71.74
82474;BME280;72350;53.232;6.556;2023-08-20T03:32:22;101945.50;;;20.20;72.03
82474;BME280;72350;53.232;6.556;2023-08-20T03:34:49;101954.13;;;20.19;72.14
82474;BME280;72350;53.232;6.556;2023-08-20T03:37:18;101948.72;;;20.17;72.38
82474;BME280;72350;53.232;6.556;2023-08-20T03:39:46;101949.41;;;20.06;72.76
82474;BME280;72350;53.232;6.556;2023-08-20T03:42:14;101947.66;;;20.12;72.69
82474;BME280;72350;53.232;6.556;2023-08-20T03:44:42;101950.66;;;20.17;72.31
82474;BME280;72350;53.232;6.556;2023-08-20T03:47:11;101962.72;;;20.17;72.61
82474;BME280;72350;53.232;6.556;2023-08-20T03:49:39;101964.47;;;20.18;72.50
82474;BME280;72350;53.232;6.556;2023-08-20T03:52:07;101970.66;;;20.20;72.31
82474;BME280;72350;53.232;6.556;2023-08-20T03:54:35;101962.50;;;20.19;72.00
82474;BME280;72350;53.232;6.556;2023-08-20T03:57:03;101968.09;;;20.19;72.13
82474;BME280;72350;53.232;6.556;2023-08-20T03:59:31;101968.75;;;20.14;71.95
82474;BME280;72350;53.232;6.556;2023-08-20T04:01:59;101971.56;;;20.14;71.82
82474;BME280;72350;53.232;6.556;2023-08-20T04:04:28;101971.56;;;20.14;71.61
82474;BME280;72350;53.232;6.556;2023-08-20T04:06:57;101979.75;;;20.16;71.89
82474;BME280;72350;53.232;6.556;2023-08-20T04:09:25;101986.38;;;20.15;71.45
82474;BME280;72350;53.232;6.556;2023-08-20T04:11:53;101990.69;;;20.17;71.45
82474;BME280;72350;53.232;6.556;2023-08-20T04:14:21;101990.94;;;20.16;71.27
82474;BME280;72350;53.232;6.556;2023-08-20T04:16:49;101998.88;;;20.12;71.61
82474;BME280;72350;53.232;6.556;2023-08-20T04:19:17;101990.72;;;20.11;71.76
82474;BME280;72350;53.232;6.556;2023-08-20T04:21:47;101995.88;;;20.14;71.33
82474;BME280;72350;53.232;6.556;2023-08-20T04:24:15;101996.31;;;20.11;71.36
82474;BME280;72350;53.232;6.556;2023-08-20T04:26:43;102000.16;;;20.10;71.20
82474;BME280;72350;53.232;6.556;2023-08-20T04:29:14;102000.16;;;20.10;71.43
82474;BME280;72350;53.232;6.556;2023-08-20T04:31:42;102005.75;;;20.10;71.27
82474;BME280;72350;53.232;6.556;2023-08-20T04:34:10;102005.75;;;20.10;71.45
82474;BME280;72350;53.232;6.556;2023-08-20T04:36:43;102003.63;;;20.12;70.76
82474;BME280;72350;53.232;6.556;2023-08-20T04:39:12;102006.41;;;20.12;71.10
82474;BME280;72350;53.232;6.556;2023-08-20T04:41:44;102009.41;;;20.17;71.06
82474;BME280;72350;53.232;6.556;2023-08-20T04:44:15;102015.22;;;20.22;70.96
82474;BME280;72350;53.232;6.556;2023-08-20T04:46:44;102005.97;;;20.21;70.80
82474;BME280;72350;53.232;6.556;2023-08-20T04:49:12;102006.19;;;20.20;70.33
82474;BME280;72350;53.232;6.556;2023-08-20T04:51:40;102013.50;;;20.14;70.88
82474;BME280;72350;53.232;6.556;2023-08-20T04:54:08;102012.22;;;20.17;70.78
82474;BME280;72350;53.232;6.556;2023-08-20T04:56:37;102013.53;;;20.21;70.77
82474;BME280;72350;53.232;6.556;2023-08-20T04:59:05;102019.06;;;20.41;70.24
82474;BME280;72350;53.232;6.556;2023-08-20T05:01:53;102023.03;;;20.98;68.24
82474;BME280;72350;53.232;6.556;2023-08-20T05:04:40;102021.25;;;21.55;65.67
82474;BME280;72350;53.232;6.556;2023-08-20T05:07:08;102022.28;;;21.93;64.22
82474;BME280;72350;53.232;6.556;2023-08-20T05:09:36;102032.25;;;22.14;63.47
82474;BME280;72350;53.232;6.556;2023-08-20T05:12:07;102027.81;;;22.31;62.86
82474;BME280;72350;53.232;6.556;2023-08-20T05:14:35;102033.38;;;22.56;61.48
82474;BME280;72350;53.232;6.556;2023-08-20T05:17:03;102028.88;;;22.74;60.83
82474;BME280;72350;53.232;6.556;2023-08-20T05:19:31;102035.94;;;22.83;60.83
82474;BME280;72350;53.232;6.556;2023-08-20T05:21:59;102038.72;;;22.83;60.48
82474;BME280;72350;53.232;6.556;2023-08-20T05:24:31;102042.09;;;22.92;58.75
82474;BME280;72350;53.232;6.556;2023-08-20T05:27:04;102029.06;;;22.97;60.00
82474;BME280;72350;53.232;6.556;2023-08-20T05:29:34;102034.22;;;23.00;60.06
82474;BME280;72350;53.232;6.556;2023-08-20T05:32:03;102038.97;;;23.00;60.05
82474;BME280;72350;53.232;6.556;2023-08-20T05:34:31;102036.97;;;23.07;59.59
82474;BME280;72350;53.232;6.556;2023-08-20T05:36:59;102036.00;;;23.13;58.70
82474;BME280;72350;53.232;6.556;2023-08-20T05:39:30;102037.97;;;23.13;59.63
82474;BME280;72350;53.232;6.556;2023-08-20T05:42:04;102040.06;;;23.17;59.45
82474;BME280;72350;53.232;6.556;2023-08-20T05:44:34;102037.06;;;23.30;59.02
82474;BME280;72350;53.232;6.556;2023-08-20T05:47:02;102038.00;;;23.43;58.54
82474;BME280;72350;53.232;6.556;2023-08-20T05:49:32;102036.94;;;23.55;58.17
82474;BME280;72350;53.232;6.556;2023-08-20T05:52:00;102028.16;;;23.64;57.88
82474;BME280;72350;53.232;6.556;2023-08-20T05:54:29;102030.72;;;23.65;57.49
82474;BME280;72350;53.232;6.556;2023-08-20T05:56:57;102033.69;;;23.70;57.88
82474;BME280;72350;53.232;6.556;2023-08-20T05:59:25;102029.34;;;23.86;57.21
82474;BME280;72350;53.232;6.556;2023-08-20T06:01:54;102034.03;;;24.04;56.84
82474;BME280;72350;53.232;6.556;2023-08-20T06:04:22;102037.09;;;24.14;56.58
82474;BME280;72350;53.232;6.556;2023-08-20T06:06:50;102027.22;;;24.24;56.47
82474;BME280;72350;53.232;6.556;2023-08-20T06:09:18;102031.53;;;24.50;55.95
82474;BME280;72350;53.232;6.556;2023-08-20T06:11:46;102035.09;;;24.57;55.85
82474;BME280;72350;53.232;6.556;2023-08-20T06:14:15;102026.16;;;24.60;55.87
82474;BME280;72350;53.232;6.556;2023-08-20T06:16:42;102032.63;;;24.60;55.74
82474;BME280;72350;53.232;6.556;2023-08-20T06:19:12;102026.97;;;24.72;55.37
82474;BME280;72350;53.232;6.556;2023-08-20T06:21:40;102036.88;;;24.87;55.43
82474;BME280;72350;53.232;6.556;2023-08-20T06:24:08;102032.31;;;24.97;55.16
82474;BME280;72350;53.232;6.556;2023-08-20T06:26:36;102036.25;;;24.96;55.13
82474;BME280;72350;53.232;6.556;2023-08-20T06:29:04;102038.22;;;24.96;55.50
82474;BME280;72350;53.232;6.556;2023-08-20T06:31:32;102033.91;;;25.17;55.36
82474;BME280;72350;53.232;6.556;2023-08-20T06:34:00;102037.81;;;25.27;54.86
82474;BME280;72350;53.232;6.556;2023-08-20T06:36:29;102039.81;;;25.44;54.76
82474;BME280;72350;53.232;6.556;2023-08-20T06:38:57;102032.38;;;25.38;54.12
82474;BME280;72350;53.232;6.556;2023-08-20T06:41:25;102037.75;;;25.39;54.63
82474;BME280;72350;53.232;6.556;2023-08-20T06:43:53;102035.22;;;25.26;54.96
82474;BME280;72350;53.232;6.556;2023-08-20T06:46:20;102038.41;;;25.30;55.22
82474;BME280;72350;53.232;6.556;2023-08-20T06:52:55;102045.22;;;25.45;55.18
82474;BME280;72350;53.232;6.556;2023-08-20T06:55:23;102045.41;;;25.56;54.46
82474;BME280;72350;53.232;6.556;2023-08-20T06:57:51;102043.28;;;25.63;54.59
82474;BME280;72350;53.232;6.556;2023-08-20T07:00:19;102050.25;;;25.72;54.38
82474;BME280;72350;53.232;6.556;2023-08-20T07:02:48;102050.00;;;25.74;54.00
82474;BME280;72350;53.232;6.556;2023-08-20T07:05:16;102056.81;;;25.61;54.79
82474;BME280;72350;53.232;6.556;2023-08-20T07:07:45;102054.44;;;25.41;55.58
82474;BME280;72350;53.232;6.556;2023-08-20T07:10:14;102050.03;;;25.33;56.46
82474;BME280;72350;53.232;6.556;2023-08-20T07:12:42;102044.84;;;25.42;55.70
82474;BME280;72350;53.232;6.556;2023-08-20T07:15:10;102055.34;;;25.58;55.73
82474;BME280;72350;53.232;6.556;2023-08-20T07:17:38;102055.81;;;25.55;55.39
82474;BME280;72350;53.232;6.556;2023-08-20T07:20:08;102059.47;;;25.67;55.93
82474;BME280;72350;53.232;6.556;2023-08-20T07:22:35;102058.00;;;25.65;55.80
82474;BME280;72350;53.232;6.556;2023-08-20T07:25:04;102066.72;;;25.63;55.99
82474;BME280;72350;53.232;6.556;2023-08-20T07:27:33;102064.50;;;25.65;55.91
82474;BME280;72350;53.232;6.556;2023-08-20T07:30:01;102074.06;;;25.64;56.18
82474;BME280;72350;53.232;6.556;2023-08-20T07:32:29;102070.59;;;25.74;55.93
82474;BME280;72350;53.232;6.556;2023-08-20T07:34:57;102077.44;;;25.78;55.89
82474;BME280;72350;53.232;6.556;2023-08-20T07:37:25;102071.16;;;25.88;55.53
82474;BME280;72350;53.232;6.556;2023-08-20T07:39:53;102072.47;;;25.68;55.99
82474;BME280;72350;53.232;6.556;2023-08-20T07:42:21;102075.56;;;25.55;56.02
82474;BME280;72350;53.232;6.556;2023-08-20T07:44:50;102071.28;;;25.53;56.55
82474;BME280;72350;53.232;6.556;2023-08-20T07:47:18;102067.81;;;25.62;56.16
82474;BME280;72350;53.232;6.556;2023-08-20T07:49:46;102061.94;;;25.64;56.80
82474;BME280;72350;53.232;6.556;2023-08-20T07:52:13;102066.47;;;25.65;56.66
82474;BME280;72350;53.232;6.556;2023-08-20T07:54:41;102064.22;;;25.79;56.75
82474;BME280;72350;53.232;6.556;2023-08-20T07:57:11;102063.00;;;25.75;56.18
82474;BME280;72350;53.232;6.556;2023-08-20T07:59:39;102065.75;;;25.86;56.12
82474;BME280;72350;53.232;6.556;2023-08-20T08:02:08;102064.53;;;25.82;56.52
82474;BME280;72350;53.232;6.556;2023-08-20T08:04:36;102067.88;;;25.79;57.19
82474;BME280;72350;53.232;6.556;2023-08-20T08:07:04;102071.16;;;25.88;56.32
82474;BME280;72350;53.232;6.556;2023-08-20T08:09:32;102062.47;;;25.89;56.03
82474;BME280;72350;53.232;6.556;2023-08-20T08:12:00;102068.22;;;25.83;56.35
82474;BME280;72350;53.232;6.556;2023-08-20T08:14:28;102070.41;;;25.92;56.33
82474;BME280;72350;53.232;6.556;2023-08-20T08:16:56;102073.94;;;26.00;55.71
82474;BME280;72350;53.232;6.556;2023-08-20T08:19:26;102068.91;;;26.19;55.27
82474;BME280;72350;53.232;6.556;2023-08-20T08:21:54;102070.19;;;26.11;55.68
82474;BME280;72350;53.232;6.556;2023-08-20T08:24:22;102076.59;;;26.23;55.80
82474;BME280;72350;53.232;6.556;2023-08-20T08:26:49;102073.41;;;26.20;55.57
82474;BME280;72350;53.232;6.556;2023-08-20T08:29:17;102073.47;;;25.91;56.15
82474;BME280;72350;53.232;6.556;2023-08-20T08:31:45;102078.72;;;25.99;55.24
82474;BME280;72350;53.232;6.556;2023-08-20T08:34:13;102071.41;;;25.86;55.92
82474;BME280;72350;53.232;6.556;2023-08-20T08:36:43;102075.25;;;25.52;57.00
82474;BME280;72350;53.232;6.556;2023-08-20T08:39:11;102079.50;;;25.83;57.59
82474;BME280;72350;53.232;6.556;2023-08-20T08:41:41;102082.59;;;25.81;57.39
82474;BME280;72350;53.232;6.556;2023-08-20T08:44:10;102084.69;;;25.86;56.59
82474;BME280;72350;53.232;6.556;2023-08-20T08:46:38;102090.19;;;26.09;56.14
82474;BME280;72350;53.232;6.556;2023-08-20T08:49:07;102091.97;;;25.99;55.20
82474;BME280;72350;53.232;6.556;2023-08-20T08:51:36;102093.19;;;26.20;55.30
82474;BME280;72350;53.232;6.556;2023-08-20T08:54:07;102096.81;;;26.15;55.41
82474;BME280;72350;53.232;6.556;2023-08-20T08:56:36;102093.31;;;26.42;54.77
82474;BME280;72350;53.232;6.556;2023-08-20T08:59:04;102096.09;;;26.25;54.28
82474;BME280;72350;53.232;6.556;2023-08-20T09:01:32;102098.94;;;26.42;54.36
82474;BME280;72350;53.232;6.556;2023-08-20T09:04:00;102091.41;;;26.30;54.79
82474;BME280;72350;53.232;6.556;2023-08-20T09:06:44;102091.31;;;26.08;54.20
82474;BME280;72350;53.232;6.556;2023-08-20T09:09:14;102093.63;;;26.11;54.19
82474;BME280;72350;53.232;6.556;2023-08-20T09:11:42;102101.34;;;26.16;54.12
82474;BME280;72350;53.232;6.556;2023-08-20T09:14:21;102105.03;;;26.33;55.52
82474;BME280;72350;53.232;6.556;2023-08-20T09:16:54;102108.97;;;26.32;54.72
82474;BME280;72350;53.232;6.556;2023-08-20T09:19:22;102113.41;;;26.45;54.36
82474;BME280;72350;53.232;6.556;2023-08-20T09:21:50;102118.53;;;26.48;53.70
82474;BME280;72350;53.232;6.556;2023-08-20T09:24:32;102115.47;;;26.33;53.92
82474;BME280;72350;53.232;6.556;2023-08-20T09:27:03;102110.59;;;26.28;54.61
82474;BME280;72350;53.232;6.556;2023-08-20T09:29:32;102123.03;;;25.99;55.04
82474;BME280;72350;53.232;6.556;2023-08-20T09:32:01;102123.41;;;26.19;53.95
82474;BME280;72350;53.232;6.556;2023-08-20T09:34:36;102118.72;;;26.42;54.05
82474;BME280;72350;53.232;6.556;2023-08-20T09:37:08;102110.06;;;26.48;53.95
82474;BME280;72350;53.232;6.556;2023-08-20T09:39:38;102116.34;;;26.33;51.91
82474;BME280;72350;53.232;6.556;2023-08-20T09:42:07;102120.44;;;26.26;53.24
82474;BME280;72350;53.232;6.556;2023-08-20T09:44:36;102112.53;;;26.56;70.59
82474;BME280;72350;53.232;6.556;2023-08-20T09:47:06;102107.53;;;27.02;75.27
82474;BME280;72350;53.232;6.556;2023-08-20T09:49:37;102113.97;;;26.98;69.65
82474;BME280;72350;53.232;6.556;2023-08-20T09:52:07;102113.19;;;27.19;75.03
82474;BME280;72350;53.232;6.556;2023-08-20T09:54:45;102115.50;;;27.06;75.15
82474;BME280;72350;53.232;6.556;2023-08-20T09:57:25;102116.06;;;26.18;58.36
82474;BME280;72350;53.232;6.556;2023-08-20T09:59:56;102120.06;;;26.05;57.93
82474;BME280;72350;53.232;6.556;2023-08-20T10:02:25;102122.31;;;26.20;56.71
82474;BME280;72350;53.232;6.556;2023-08-20T10:04:53;102119.50;;;26.37;56.44
82474;BME280;72350;53.232;6.556;2023-08-20T10:07:23;102115.72;;;26.48;56.66
82474;BME280;72350;53.232;6.556;2023-08-20T10:09:54;102118.75;;;26.58;54.80
82474;BME280;72350;53.232;6.556;2023-08-20T10:12:24;102129.47;;;26.56;55.47
82474;BME280;72350;53.232;6.556;2023-08-20T10:14:52;102129.97;;;26.53;55.51
82474;BME280;72350;53.232;6.556;2023-08-20T10:17:22;102125.63;;;26.63;58.13
82474;BME280;72350;53.232;6.556;2023-08-20T10:19:51;102130.22;;;26.86;57.11
82474;BME280;72350;53.232;6.556;2023-08-20T10:22:20;102133.25;;;26.62;55.48
82474;BME280;72350;53.232;6.556;2023-08-20T10:24:51;102143.59;;;26.73;54.41
82474;BME280;72350;53.232;6.556;2023-08-20T10:27:28;102132.97;;;26.80;54.91
82474;BME280;72350;53.232;6.556;2023-08-20T10:29:58;102130.41;;;26.62;52.71
82474;BME280;72350;53.232;6.556;2023-08-20T10:32:47;102129.28;;;26.46;53.11
82474;BME280;72350;53.232;6.556;2023-08-20T10:35:16;102131.50;;;26.61;53.62
82474;BME280;72350;53.232;6.556;2023-08-20T10:38:06;102129.13;;;26.53;53.05
82474;BME280;72350;53.232;6.556;2023-08-20T10:40:52;102123.47;;;26.53;52.90
82474;BME280;72350;53.232;6.556;2023-08-20T10:43:29;102126.66;;;26.56;52.85
82474;BME280;72350;53.232;6.556;2023-08-20T10:46:08;102130.84;;;26.54;52.10
82474;BME280;72350;53.232;6.556;2023-08-20T10:48:38;102126.72;;;25.99;53.22
82474;BME280;72350;53.232;6.556;2023-08-20T10:51:11;102113.28;;;26.06;53.37
82474;BME280;72350;53.232;6.556;2023-08-20T10:53:41;102120.22;;;25.99;53.62
82474;BME280;72350;53.232;6.556;2023-08-20T10:56:14;102120.13;;;25.93;52.00
82474;BME280;72350;53.232;6.556;2023-08-20T10:58:46;102116.63;;;26.03;52.13
82474;BME280;72350;53.232;6.556;2023-08-20T11:01:15;102119.97;;;26.00;52.71
82474;BME280;72350;53.232;6.556;2023-08-20T11:03:44;102116.72;;;26.25;51.80
82474;BME280;72350;53.232;6.556;2023-08-20T11:06:12;102121.72;;;26.35;51.81
82474;BME280;72350;53.232;6.556;2023-08-20T11:08:41;102121.56;;;26.42;54.28
82474;BME280;72350;53.232;6.556;2023-08-20T11:11:09;102120.94;;;26.23;53.10
82474;BME280;72350;53.232;6.556;2023-08-20T11:13:38;102118.78;;;26.13;52.78
82474;BME280;72350;53.232;6.556;2023-08-20T11:16:07;102117.94;;;26.12;52.14
82474;BME280;72350;53.232;6.556;2023-08-20T11:18:36;102123.94;;;26.16;51.02
82474;BME280;72350;53.232;6.556;2023-08-20T11:21:03;102120.44;;;26.26;50.74
82474;BME280;72350;53.232;6.556;2023-08-20T11:23:31;102123.00;;;26.27;49.39
82474;BME280;72350;53.232;6.556;2023-08-20T11:26:00;102125.75;;;26.39;50.22
82474;BME280;72350;53.232;6.556;2023-08-20T11:28:29;102132.44;;;26.50;50.69
82474;BME280;72350;53.232;6.556;2023-08-20T11:30:57;102116.91;;;26.35;49.69
82474;BME280;72350;53.232;6.556;2023-08-20T11:33:26;102122.25;;;26.49;49.99
82474;BME280;72350;53.232;6.556;2023-08-20T11:35:55;102116.59;;;26.49;51.00
82474;BME280;72350;53.232;6.556;2023-08-20T11:38:23;102113.75;;;26.32;51.60
82474;BME280;72350;53.232;6.556;2023-08-20T11:40:51;102119.88;;;26.12;52.14
82474;BME280;72350;53.232;6.556;2023-08-20T11:43:19;102123.69;;;25.89;52.75
82474;BME280;72350;53.232;6.556;2023-08-20T11:45:48;102122.50;;;25.85;50.85
82474;BME280;72350;53.232;6.556;2023-08-20T11:48:16;102120.72;;;25.96;50.53
82474;BME280;72350;53.232;6.556;2023-08-20T11:50:46;102124.34;;;26.08;50.59
82474;BME280;72350;53.232;6.556;2023-08-20T11:53:14;102128.03;;;26.25;50.55
82474;BME280;72350;53.232;6.556;2023-08-20T11:55:43;102134.59;;;25.97;51.53
82474;BME280;72350;53.232;6.556;2023-08-20T11:58:11;102126.28;;;25.90;50.47
82474;BME280;72350;53.232;6.556;2023-08-20T12:00:40;102133.66;;;26.08;51.27
82474;BME280;72350;53.232;6.556;2023-08-20T12:03:09;102119.50;;;26.20;50.09
82474;BME280;72350;53.232;6.556;2023-08-20T12:05:41;102118.28;;;26.33;49.35
82474;BME280;72350;53.232;6.556;2023-08-20T12:08:15;102121.88;;;26.45;50.90
82474;BME280;72350;53.232;6.556;2023-08-20T12:10:43;102123.94;;;26.50;50.05
82474;BME280;72350;53.232;6.556;2023-08-20T12:13:12;102116.84;;;26.47;49.52
82474;BME280;72350;53.232;6.556;2023-08-20T12:15:40;102118.75;;;26.58;48.11
82474;BME280;72350;53.232;6.556;2023-08-20T12:18:08;102123.72;;;26.68;49.30
82474;BME280;72350;53.232;6.556;2023-08-20T12:20:37;102121.84;;;26.57;47.36
82474;BME280;72350;53.232;6.556;2023-08-20T12:23:06;102122.44;;;26.76;48.66
82474;BME280;72350;53.232;6.556;2023-08-20T12:25:35;102113.00;;;26.70;49.36
82474;BME280;72350;53.232;6.556;2023-08-20T12:28:04;102116.16;;;26.74;49.19
82474;BME280;72350;53.232;6.556;2023-08-20T12:30:33;102111.03;;;26.71;49.13
82474;BME280;72350;53.232;6.556;2023-08-20T12:33:05;102113.09;;;26.75;48.02
82474;BME280;72350;53.232;6.556;2023-08-20T12:35:34;102106.59;;;26.75;48.93
82474;BME280;72350;53.232;6.556;2023-08-20T12:38:02;102110.50;;;26.74;49.29
82474;BME280;72350;53.232;6.556;2023-08-20T12:40:31;102106.91;;;26.62;49.02
82474;BME280;72350;53.232;6.556;2023-08-20T12:43:00;102104.03;;;26.56;49.60
82474;BME280;72350;53.232;6.556;2023-08-20T12:45:28;102106.69;;;26.63;48.08
82474;BME280;72350;53.232;6.556;2023-08-20T12:47:56;102110.44;;;26.69;48.95
82474;BME280;72350;53.232;6.556;2023-08-20T12:50:28;102099.31;;;26.62;48.55
82474;BME280;72350;53.232;6.556;2023-08-20T12:52:56;102103.84;;;26.63;48.59
82474;BME280;72350;53.232;6.556;2023-08-20T12:55:24;102103.75;;;26.58;50.80
82474;BME280;72350;53.232;6.556;2023-08-20T12:57:53;102114.47;;;26.73;49.60
82474;BME280;72350;53.232;6.556;2023-08-20T13:00:24;102112.66;;;26.67;50.59
82474;BME280;72350;53.232;6.556;2023-08-20T13:02:53;102122.63;;;26.52;48.95
82474;BME280;72350;53.232;6.556;2023-08-20T13:05:23;102107.19;;;26.60;49.57